Aérodrome :
LOGIN :

S'inscrire | Disclaimer

   EN    FR    IT 

 










Légende :    VFR   VFR Marginal   IFR   IFR Intensif   IFR Très Intensif
Visi : 
Plafond : 
>= 8 km
>= 3000ft
5 à 8 km
1000 à 3000 ft
1500m à 5 km
500 à 1000 ft
800 à 1500m
200 à 500 ft
< 800m
< 200 ft
Symboles :   Orages  Brouillard  Fortes neiges  Fortes précipitations  Vent > 20 kt
SIGMETs :   Divers  Orages  Givrage  Turbulence  Onde Orograph.  Cendres Volcan.






- Altitude de l'aérodrome : 39 ft
- Code IATA : ANR


EBAW - Anvers / Antwerpen Deurne

DERNIER METAR :
  • 230920Z 20010KT 170V230 9999 FEW023 20/13 Q1005 NOSIG

METARs EXPIRÉS :
  • 230850Z 19008KT 170V240 9999 FEW020 19/14 Q1005 NOSIG
  • 230820Z 17005KT 9999 FEW045 17/13 Q1005 NOSIG
  • 230750Z 16004KT 9999 FEW045 16/13 Q1005 NOSIG
  • 230720Z 15004KT CAVOK 16/12 Q1005 NOSIG
  • 230650Z 16004KT CAVOK 15/12 Q1005 NOSIG

TAF TAF EBAW
Valide du 23 à 09h jusqu'au 23 à 18h UTC


230820Z 2309/2318 21010KT 9999 SCT040
TEMPO 2315/2318 21015G25KT 4000 SHRA



MET'MAP, la Météo Aéronautique d'un coup d'oeil ! - Copyright ORBIFLY Décembre 2007 - Disclaimer

ORBIFLY MET'MAP TEAM :

Programmation & Développement : Alexandra Zaïnal
Sur une idée originale de : Baudouin d'Aumeries
Assistance à la programmation : Marc-Olivier Méhu
Soutien technique & logistique : Manuel Goepfert

Contact : metmap@orbifly.com




SOURCES & CREDITS :

   NOAA